ADDS METAR Data INFO
IDs: Format: Raw Decoded Include TAF

Data at: 0256 UTC 21 Jan 2018

KTCL 210253Z AUTO 00000KT 10SM CLR 07/03 A3023 RMK AO2 SLP235 T00720033 50003
KTCL 210153Z 00000KT 10SM CLR 12/04 A3023 RMK AO2 SLP235 T01170044
KTCL 210053Z 00000KT 10SM CLR 13/04 A3023 RMK AO2 SLP235 T01280039
KTCL 202353Z 15004KT 10SM CLR 16/03 A3022 RMK AO2 SLP232 T01610033 10189 20150 53005
KTCL 202253Z 18007KT 10SM CLR 17/03 A3021 RMK AO2 SLP230 T01670028
KTCL 202153Z AUTO 17008KT 10SM CLR 18/02 A3020 RMK AO2 SLP227 T01830022
KTCL 202053Z AUTO 17007KT 10SM CLR 19/02 A3020 RMK AO2 SLP227 T01890017 56023
KTCL 201953Z AUTO 20007KT 10SM FEW060 18/01 A3021 RMK AO2 SLP230 T01830011
KTCL 201853Z AUTO 19007KT 150V220 10SM FEW060 18/01 A3024 RMK AO2 SLP238 T01780011
KTCL 201753Z AUTO 17009KT 10SM CLR 16/00 A3027 RMK AO2 SLP249 T01610000 10161 20061 58010
KTCL 201653Z AUTO 19008KT 10SM BKN070 14/M03 A3031 RMK AO2 SLP261 T01391028
KTCL 201553Z AUTO VRB05KT 10SM OVC065 12/M04 A3031 RMK AO2 SLP263 T01221039
KTCL 201453Z AUTO 18005KT 10SM FEW060 10/M03 A3030 RMK AO2 SLP260 T01001033 53009
KTCL 201353Z AUTO 21004KT 10SM OVC055 08/M03 A3028 RMK AO2 SLP254 T00781028
KTCL 201253Z AUTO 14005KT 10SM OVC049 08/M04 A3027 RMK AO2 SLP250 T00831044
KTCL 201153Z AUTO 00000KT 10SM OVC050 07/00 A3027 RMK AO2 SLP251 T00670000 10083 20061 53005
KTCL 201053Z AUTO 00000KT 10SM OVC050 07/00 A3027 RMK AO2 SLP248 T00670000
KTCL 200953Z AUTO 00000KT 10SM OVC050 07/00 A3026 RMK AO2 SLP247 T00670000
KTCL 200853Z AUTO 00000KT 10SM OVC048 07/M02 A3026 RMK AO2 SLP246 T00671017 50000
KTCL 200753Z AUTO 00000KT 10SM OVC046 07/M03 A3026 RMK AO2 SLP246 T00721028
KTCL 200653Z AUTO 13004KT 10SM OVC046 07/M03 A3026 RMK AO2 SLP246 T00671028
KTCL 200553Z AUTO 00000KT 10SM OVC046 07/M03 A3026 RMK AO2 SLP247 T00721028 10094 20067 401171089 58005
KTCL 200453Z AUTO 00000KT 10SM OVC045 08/M04 A3027 RMK AO2 SLP249 T00781044
KTCL 200353Z AUTO 14004KT 10SM OVC045 09/M06 A3027 RMK AO2 SLP250 T00891061
KTCL 200253Z AUTO 00000KT 10SM OVC047 07/M03 A3027 RMK AO2 SLP251 T00721028 51004
KTCL 200153Z 17005KT 10SM OVC047 08/M06 A3027 RMK AO2 SLP251 T00831056
KTCL 200053Z 00000KT 10SM OVC049 09/M06 A3027 RMK AO2 SLP250 T00891061
KTCL 192353Z 20003KT 10SM OVC049 08/M05 A3026 RMK AO2 SLP247 T00831050 10117 20072 56006
KTCL 192053Z 15003KT 10SM SCT050 11/M08 A3028 RMK AO2 SLP253 T01111083 56027
KTCL 191953Z 00000KT 10SM CLR 12/M09 A3028 RMK AO2 SLP254 T01171089
KTCL 191853Z 28003KT 10SM CLR 09/M09 A3031 RMK AO2 SLP264 T00891094
KTCL 191753Z 00000KT 10SM CLR 07/M07 A3036 RMK AO2 SLP281 60000 T00721072 10072 21089 58019
KTCL 191653Z VRB03KT 10SM CLR 05/M07 A3040 RMK AO2 RAE09 SLP293 P0000 T00501072
KTCL 191553Z 00000KT 10SM -RA CLR 02/M04 A3042 RMK AO2 RAB48 SLP302 P0000 T00171044